sensor_id;sensor_type;location;lat;lon;timestamp;temperature;humidity
33739;DHT22;20063;51.730;11.110;2023-02-13T00:00:48;7.20;99.90
33739;DHT22;20063;51.730;11.110;2023-02-13T00:03:14;7.20;99.90
33739;DHT22;20063;51.730;11.110;2023-02-13T00:05:39;7.10;99.90
33739;DHT22;20063;51.730;11.110;2023-02-13T00:08:05;7.10;99.90
33739;DHT22;20063;51.730;11.110;2023-02-13T00:10:32;7.10;99.90
33739;DHT22;20063;51.730;11.110;2023-02-13T00:12:57;7.10;99.90
33739;DHT22;20063;51.730;11.110;2023-02-13T00:15:23;7.10;99.90
33739;DHT22;20063;51.730;11.110;2023-02-13T00:17:48;7.10;99.90
33739;DHT22;20063;51.730;11.110;2023-02-13T00:20:14;7.10;99.90
33739;DHT22;20063;51.730;11.110;2023-02-13T00:22:39;7.10;99.90
33739;DHT22;20063;51.730;11.110;2023-02-13T00:25:06;7.10;99.90
33739;DHT22;20063;51.730;11.110;2023-02-13T00:27:32;7.10;99.90
33739;DHT22;20063;51.730;11.110;2023-02-13T00:29:58;7.00;99.90
33739;DHT22;20063;51.730;11.110;2023-02-13T00:32:24;7.00;99.90
33739;DHT22;20063;51.730;11.110;2023-02-13T00:34:49;7.00;99.90
33739;DHT22;20063;51.730;11.110;2023-02-13T00:37:15;7.00;99.90
33739;DHT22;20063;51.730;11.110;2023-02-13T00:39:41;7.00;99.90
33739;DHT22;20063;51.730;11.110;2023-02-13T00:42:07;7.00;99.90
33739;DHT22;20063;51.730;11.110;2023-02-13T00:44:32;7.00;99.90
33739;DHT22;20063;51.730;11.110;2023-02-13T00:46:58;7.00;99.90
33739;DHT22;20063;51.730;11.110;2023-02-13T00:49:23;7.00;99.90
33739;DHT22;20063;51.730;11.110;2023-02-13T00:51:49;7.00;99.90
33739;DHT22;20063;51.730;11.110;2023-02-13T00:54:15;7.00;99.90
33739;DHT22;20063;51.730;11.110;2023-02-13T00:56:40;6.90;99.90
33739;DHT22;20063;51.730;11.110;2023-02-13T00:59:06;6.90;99.90
33739;DHT22;20063;51.730;11.110;2023-02-13T01:01:31;6.80;99.90
33739;DHT22;20063;51.730;11.110;2023-02-13T01:03:57;6.80;99.90
33739;DHT22;20063;51.730;11.110;2023-02-13T01:06:23;6.80;99.90
33739;DHT22;20063;51.730;11.110;2023-02-13T01:08:48;6.70;99.90
33739;DHT22;20063;51.730;11.110;2023-02-13T01:11:14;6.70;99.90
33739;DHT22;20063;51.730;11.110;2023-02-13T01:13:39;6.70;99.90
33739;DHT22;20063;51.730;11.110;2023-02-13T01:16:05;6.70;99.90
33739;DHT22;20063;51.730;11.110;2023-02-13T01:18:32;6.70;99.90
33739;DHT22;20063;51.730;11.110;2023-02-13T01:21:06;6.70;99.90
33739;DHT22;20063;51.730;11.110;2023-02-13T01:23:36;6.60;99.90
33739;DHT22;20063;51.730;11.110;2023-02-13T01:26:04;6.60;99.90
33739;DHT22;20063;51.730;11.110;2023-02-13T01:28:29;6.60;99.90
33739;DHT22;20063;51.730;11.110;2023-02-13T01:30:56;6.60;99.90
33739;DHT22;20063;51.730;11.110;2023-02-13T01:33:23;6.60;99.90
33739;DHT22;20063;51.730;11.110;2023-02-13T01:35:49;6.60;99.90
33739;DHT22;20063;51.730;11.110;2023-02-13T01:38:15;6.60;99.90
33739;DHT22;20063;51.730;11.110;2023-02-13T01:40:59;6.60;99.90
33739;DHT22;20063;51.730;11.110;2023-02-13T01:46:08;6.60;99.90
33739;DHT22;20063;51.730;11.110;2023-02-13T01:48:35;6.50;99.90
33739;DHT22;20063;51.730;11.110;2023-02-13T01:51:05;6.50;99.90
33739;DHT22;20063;51.730;11.110;2023-02-13T01:53:33;6.50;99.90
33739;DHT22;20063;51.730;11.110;2023-02-13T01:56:07;6.50;99.90
33739;DHT22;20063;51.730;11.110;2023-02-13T01:58:38;6.50;99.90
33739;DHT22;20063;51.730;11.110;2023-02-13T02:01:05;6.50;99.90
33739;DHT22;20063;51.730;11.110;2023-02-13T02:04:06;6.50;99.90
33739;DHT22;20063;51.730;11.110;2023-02-13T02:06:56;6.50;99.90
33739;DHT22;20063;51.730;11.110;2023-02-13T02:09:27;6.60;99.90
33739;DHT22;20063;51.730;11.110;2023-02-13T02:12:21;6.50;99.90
33739;DHT22;20063;51.730;11.110;2023-02-13T02:14:48;6.60;99.90
33739;DHT22;20063;51.730;11.110;2023-02-13T02:17:15;6.50;99.90
33739;DHT22;20063;51.730;11.110;2023-02-13T02:19:43;6.60;99.90
33739;DHT22;20063;51.730;11.110;2023-02-13T02:34:23;6.60;99.90
33739;DHT22;20063;51.730;11.110;2023-02-13T02:46:32;6.60;99.90
33739;DHT22;20063;51.730;11.110;2023-02-13T02:54:37;6.60;99.90
33739;DHT22;20063;51.730;11.110;2023-02-13T02:57:23;6.60;99.90
33739;DHT22;20063;51.730;11.110;2023-02-13T02:59:52;6.60;99.90
33739;DHT22;20063;51.730;11.110;2023-02-13T03:02:36;6.60;99.90
33739;DHT22;20063;51.730;11.110;2023-02-13T03:05:28;6.60;99.90
33739;DHT22;20063;51.730;11.110;2023-02-13T03:08:15;6.60;99.90
33739;DHT22;20063;51.730;11.110;2023-02-13T03:11:01;6.60;99.90
33739;DHT22;20063;51.730;11.110;2023-02-13T03:13:47;6.60;99.90
33739;DHT22;20063;51.730;11.110;2023-02-13T03:16:18;6.60;99.90
33739;DHT22;20063;51.730;11.110;2023-02-13T03:19:04;6.60;99.90
33739;DHT22;20063;51.730;11.110;2023-02-13T03:22:30;6.50;99.90
33739;DHT22;20063;51.730;11.110;2023-02-13T03:25:39;6.60;99.90
33739;DHT22;20063;51.730;11.110;2023-02-13T03:31:00;6.60;99.90
33739;DHT22;20063;51.730;11.110;2023-02-13T03:36:32;6.50;99.90
33739;DHT22;20063;51.730;11.110;2023-02-13T03:39:21;6.50;99.90
33739;DHT22;20063;51.730;11.110;2023-02-13T03:44:30;6.50;99.90
33739;DHT22;20063;51.730;11.110;2023-02-13T03:46:59;6.50;99.90
33739;DHT22;20063;51.730;11.110;2023-02-13T03:49:38;6.50;99.90
33739;DHT22;20063;51.730;11.110;2023-02-13T03:52:30;6.50;99.90
33739;DHT22;20063;51.730;11.110;2023-02-13T03:55:05;6.40;99.90
33739;DHT22;20063;51.730;11.110;2023-02-13T03:57:52;6.40;99.90
33739;DHT22;20063;51.730;11.110;2023-02-13T04:00:43;6.40;99.90
33739;DHT22;20063;51.730;11.110;2023-02-13T04:03:24;6.50;99.90
33739;DHT22;20063;51.730;11.110;2023-02-13T04:06:06;6.40;99.90
33739;DHT22;20063;51.730;11.110;2023-02-13T04:08:32;6.50;99.90
33739;DHT22;20063;51.730;11.110;2023-02-13T04:14:00;6.40;99.90
33739;DHT22;20063;51.730;11.110;2023-02-13T04:16:41;6.40;99.90
33739;DHT22;20063;51.730;11.110;2023-02-13T04:19:09;6.40;99.90
33739;DHT22;20063;51.730;11.110;2023-02-13T04:21:37;6.50;99.90
33739;DHT22;20063;51.730;11.110;2023-02-13T04:24:05;6.40;99.90
33739;DHT22;20063;51.730;11.110;2023-02-13T04:26:36;6.40;99.90
33739;DHT22;20063;51.730;11.110;2023-02-13T04:29:02;6.40;99.90
33739;DHT22;20063;51.730;11.110;2023-02-13T04:31:28;6.40;99.90
33739;DHT22;20063;51.730;11.110;2023-02-13T04:33:54;6.40;99.90
33739;DHT22;20063;51.730;11.110;2023-02-13T04:36:19;6.40;99.90
33739;DHT22;20063;51.730;11.110;2023-02-13T04:38:45;6.40;99.90
33739;DHT22;20063;51.730;11.110;2023-02-13T04:41:11;6.40;99.90
33739;DHT22;20063;51.730;11.110;2023-02-13T04:43:36;6.40;99.90
33739;DHT22;20063;51.730;11.110;2023-02-13T04:46:02;6.40;99.90
33739;DHT22;20063;51.730;11.110;2023-02-13T04:48:28;6.40;99.90
33739;DHT22;20063;51.730;11.110;2023-02-13T04:50:54;6.40;99.90
33739;DHT22;20063;51.730;11.110;2023-02-13T04:53:20;6.40;99.90
33739;DHT22;20063;51.730;11.110;2023-02-13T04:55:45;6.40;99.90
33739;DHT22;20063;51.730;11.110;2023-02-13T04:58:11;6.40;99.90
33739;DHT22;20063;51.730;11.110;2023-02-13T05:00:37;6.40;99.90
33739;DHT22;20063;51.730;11.110;2023-02-13T05:03:06;6.40;99.90
33739;DHT22;20063;51.730;11.110;2023-02-13T05:05:32;6.40;99.90
33739;DHT22;20063;51.730;11.110;2023-02-13T05:07:58;6.40;99.90
33739;DHT22;20063;51.730;11.110;2023-02-13T05:10:24;6.40;99.90
33739;DHT22;20063;51.730;11.110;2023-02-13T05:12:50;6.40;99.90
33739;DHT22;20063;51.730;11.110;2023-02-13T05:15:15;6.40;99.90
33739;DHT22;20063;51.730;11.110;2023-02-13T05:17:44;6.40;99.90
33739;DHT22;20063;51.730;11.110;2023-02-13T05:20:11;6.40;99.90
33739;DHT22;20063;51.730;11.110;2023-02-13T05:22:49;6.40;99.90
33739;DHT22;20063;51.730;11.110;2023-02-13T05:25:35;6.40;99.90
33739;DHT22;20063;51.730;11.110;2023-02-13T05:28:01;6.40;99.90
33739;DHT22;20063;51.730;11.110;2023-02-13T05:30:26;6.30;99.90
33739;DHT22;20063;51.730;11.110;2023-02-13T05:32:52;6.30;99.90
33739;DHT22;20063;51.730;11.110;2023-02-13T05:35:20;6.40;99.90
33739;DHT22;20063;51.730;11.110;2023-02-13T05:37:47;6.40;99.90
33739;DHT22;20063;51.730;11.110;2023-02-13T05:40:14;6.50;99.90
33739;DHT22;20063;51.730;11.110;2023-02-13T05:42:40;6.40;99.90
33739;DHT22;20063;51.730;11.110;2023-02-13T05:45:08;6.40;99.90
33739;DHT22;20063;51.730;11.110;2023-02-13T05:47:35;6.40;99.90
33739;DHT22;20063;51.730;11.110;2023-02-13T05:50:01;6.40;99.90
33739;DHT22;20063;51.730;11.110;2023-02-13T05:52:26;6.50;99.90
33739;DHT22;20063;51.730;11.110;2023-02-13T05:54:52;6.50;99.90
33739;DHT22;20063;51.730;11.110;2023-02-13T05:57:18;6.50;99.90
33739;DHT22;20063;51.730;11.110;2023-02-13T05:59:43;6.50;99.90
33739;DHT22;20063;51.730;11.110;2023-02-13T06:02:09;6.50;99.90
33739;DHT22;20063;51.730;11.110;2023-02-13T06:04:34;6.50;99.90
33739;DHT22;20063;51.730;11.110;2023-02-13T06:07:00;6.50;99.90
33739;DHT22;20063;51.730;11.110;2023-02-13T06:09:26;6.40;99.90
33739;DHT22;20063;51.730;11.110;2023-02-13T06:11:52;6.50;99.90
33739;DHT22;20063;51.730;11.110;2023-02-13T06:14:18;6.40;99.90
33739;DHT22;20063;51.730;11.110;2023-02-13T06:16:43;6.50;99.90
33739;DHT22;20063;51.730;11.110;2023-02-13T06:19:09;6.50;99.90
33739;DHT22;20063;51.730;11.110;2023-02-13T06:21:34;6.40;99.90
33739;DHT22;20063;51.730;11.110;2023-02-13T06:24:07;6.40;99.90
33739;DHT22;20063;51.730;11.110;2023-02-13T06:26:33;6.40;99.90
33739;DHT22;20063;51.730;11.110;2023-02-13T06:28:59;6.50;99.90
33739;DHT22;20063;51.730;11.110;2023-02-13T06:31:25;6.40;99.90
33739;DHT22;20063;51.730;11.110;2023-02-13T06:33:51;6.40;99.90
33739;DHT22;20063;51.730;11.110;2023-02-13T06:36:17;6.30;99.90
33739;DHT22;20063;51.730;11.110;2023-02-13T06:38:43;6.30;99.90
33739;DHT22;20063;51.730;11.110;2023-02-13T06:41:08;6.40;99.90
33739;DHT22;20063;51.730;11.110;2023-02-13T06:43:34;6.30;99.90
33739;DHT22;20063;51.730;11.110;2023-02-13T06:46:07;6.30;99.90
33739;DHT22;20063;51.730;11.110;2023-02-13T06:48:33;6.30;99.90
33739;DHT22;20063;51.730;11.110;2023-02-13T06:50:59;6.30;99.90
33739;DHT22;20063;51.730;11.110;2023-02-13T06:53:26;6.30;99.90
33739;DHT22;20063;51.730;11.110;2023-02-13T06:55:53;6.30;99.90
33739;DHT22;20063;51.730;11.110;2023-02-13T06:58:20;6.30;99.90
33739;DHT22;20063;51.730;11.110;2023-02-13T07:00:46;6.30;99.90
33739;DHT22;20063;51.730;11.110;2023-02-13T07:03:12;6.40;99.90
33739;DHT22;20063;51.730;11.110;2023-02-13T07:05:42;6.40;99.90
33739;DHT22;20063;51.730;11.110;2023-02-13T07:08:09;6.40;99.90
33739;DHT22;20063;51.730;11.110;2023-02-13T07:10:41;6.40;99.90
33739;DHT22;20063;51.730;11.110;2023-02-13T07:13:07;6.50;99.90
33739;DHT22;20063;51.730;11.110;2023-02-13T07:15:34;6.50;99.90
33739;DHT22;20063;51.730;11.110;2023-02-13T07:18:00;6.60;99.90
33739;DHT22;20063;51.730;11.110;2023-02-13T07:20:26;6.60;99.90
33739;DHT22;20063;51.730;11.110;2023-02-13T07:22:52;6.60;99.90
33739;DHT22;20063;51.730;11.110;2023-02-13T07:25:18;6.60;99.90
33739;DHT22;20063;51.730;11.110;2023-02-13T07:27:44;6.50;99.90
33739;DHT22;20063;51.730;11.110;2023-02-13T07:30:10;6.60;99.90
33739;DHT22;20063;51.730;11.110;2023-02-13T07:32:36;6.60;99.90
33739;DHT22;20063;51.730;11.110;2023-02-13T07:35:02;6.60;99.90
33739;DHT22;20063;51.730;11.110;2023-02-13T07:37:29;6.60;99.90
33739;DHT22;20063;51.730;11.110;2023-02-13T07:39:55;6.60;99.90
33739;DHT22;20063;51.730;11.110;2023-02-13T07:42:20;6.60;99.90
33739;DHT22;20063;51.730;11.110;2023-02-13T07:44:46;6.60;99.90
33739;DHT22;20063;51.730;11.110;2023-02-13T07:47:11;6.60;99.90
33739;DHT22;20063;51.730;11.110;2023-02-13T07:49:37;6.60;99.90
33739;DHT22;20063;51.730;11.110;2023-02-13T07:52:03;6.70;99.90
33739;DHT22;20063;51.730;11.110;2023-02-13T07:54:29;6.60;99.90
33739;DHT22;20063;51.730;11.110;2023-02-13T07:56:56;6.60;99.90
33739;DHT22;20063;51.730;11.110;2023-02-13T07:59:21;6.60;99.90
33739;DHT22;20063;51.730;11.110;2023-02-13T08:01:47;6.60;99.90
33739;DHT22;20063;51.730;11.110;2023-02-13T08:04:13;6.60;99.90
33739;DHT22;20063;51.730;11.110;2023-02-13T08:06:39;6.60;99.90
33739;DHT22;20063;51.730;11.110;2023-02-13T08:09:05;6.60;99.90
33739;DHT22;20063;51.730;11.110;2023-02-13T08:11:51;6.60;99.90
33739;DHT22;20063;51.730;11.110;2023-02-13T08:14:24;6.80;99.90
33739;DHT22;20063;51.730;11.110;2023-02-13T08:16:51;6.70;99.90
33739;DHT22;20063;51.730;11.110;2023-02-13T08:19:19;6.70;99.90
33739;DHT22;20063;51.730;11.110;2023-02-13T08:21:45;6.70;99.90
33739;DHT22;20063;51.730;11.110;2023-02-13T08:24:11;6.70;99.90
33739;DHT22;20063;51.730;11.110;2023-02-13T08:26:37;6.70;99.90
33739;DHT22;20063;51.730;11.110;2023-02-13T08:29:04;6.70;99.90
33739;DHT22;20063;51.730;11.110;2023-02-13T08:31:30;6.70;99.90
33739;DHT22;20063;51.730;11.110;2023-02-13T08:33:56;6.70;99.90
33739;DHT22;20063;51.730;11.110;2023-02-13T08:36:22;6.70;99.90
33739;DHT22;20063;51.730;11.110;2023-02-13T08:38:48;6.70;99.90
33739;DHT22;20063;51.730;11.110;2023-02-13T08:41:15;6.80;99.90
33739;DHT22;20063;51.730;11.110;2023-02-13T08:43:42;6.80;99.90
33739;DHT22;20063;51.730;11.110;2023-02-13T08:46:08;6.80;99.90
33739;DHT22;20063;51.730;11.110;2023-02-13T08:48:34;6.80;99.90
33739;DHT22;20063;51.730;11.110;2023-02-13T08:50:59;6.70;99.90
33739;DHT22;20063;51.730;11.110;2023-02-13T08:53:25;6.90;99.90
33739;DHT22;20063;51.730;11.110;2023-02-13T08:55:55;6.90;99.90
33739;DHT22;20063;51.730;11.110;2023-02-13T08:58:21;6.90;99.90
33739;DHT22;20063;51.730;11.110;2023-02-13T09:00:53;6.80;99.90
33739;DHT22;20063;51.730;11.110;2023-02-13T09:03:18;6.80;99.90
33739;DHT22;20063;51.730;11.110;2023-02-13T09:05:44;6.90;99.90
33739;DHT22;20063;51.730;11.110;2023-02-13T09:08:10;6.80;99.90
33739;DHT22;20063;51.730;11.110;2023-02-13T09:10:39;6.80;99.90
33739;DHT22;20063;51.730;11.110;2023-02-13T09:13:06;6.80;99.90
33739;DHT22;20063;51.730;11.110;2023-02-13T09:15:32;6.80;99.90
33739;DHT22;20063;51.730;11.110;2023-02-13T09:17:58;6.90;99.90
33739;DHT22;20063;51.730;11.110;2023-02-13T09:20:23;6.90;99.90
33739;DHT22;20063;51.730;11.110;2023-02-13T09:22:49;6.90;99.90
33739;DHT22;20063;51.730;11.110;2023-02-13T09:25:15;6.90;99.90
33739;DHT22;20063;51.730;11.110;2023-02-13T09:27:40;6.90;99.90
33739;DHT22;20063;51.730;11.110;2023-02-13T09:30:07;6.90;99.90
33739;DHT22;20063;51.730;11.110;2023-02-13T09:32:34;6.90;99.90
33739;DHT22;20063;51.730;11.110;2023-02-13T09:34:59;6.90;99.90
33739;DHT22;20063;51.730;11.110;2023-02-13T09:37:26;7.00;99.90
33739;DHT22;20063;51.730;11.110;2023-02-13T09:39:51;7.00;99.90
33739;DHT22;20063;51.730;11.110;2023-02-13T09:42:21;7.00;99.90
33739;DHT22;20063;51.730;11.110;2023-02-13T09:45:01;7.00;99.90
33739;DHT22;20063;51.730;11.110;2023-02-13T09:47:36;7.10;99.90
33739;DHT22;20063;51.730;11.110;2023-02-13T09:50:09;7.10;99.90
33739;DHT22;20063;51.730;11.110;2023-02-13T09:52:37;7.10;99.90
33739;DHT22;20063;51.730;11.110;2023-02-13T09:55:20;7.10;99.90
33739;DHT22;20063;51.730;11.110;2023-02-13T09:58:27;7.10;99.90
33739;DHT22;20063;51.730;11.110;2023-02-13T10:00:57;7.20;99.90
33739;DHT22;20063;51.730;11.110;2023-02-13T10:03:35;7.20;99.90
33739;DHT22;20063;51.730;11.110;2023-02-13T10:06:07;7.20;99.90
33739;DHT22;20063;51.730;11.110;2023-02-13T10:17:31;7.30;99.90
33739;DHT22;20063;51.730;11.110;2023-02-13T10:20:04;7.30;99.90
33739;DHT22;20063;51.730;11.110;2023-02-13T10:22:45;7.30;99.90
33739;DHT22;20063;51.730;11.110;2023-02-13T10:25:41;7.30;99.90
33739;DHT22;20063;51.730;11.110;2023-02-13T10:28:14;7.20;99.90
33739;DHT22;20063;51.730;11.110;2023-02-13T10:31:02;7.30;99.90
33739;DHT22;20063;51.730;11.110;2023-02-13T10:33:33;7.30;99.90
33739;DHT22;20063;51.730;11.110;2023-02-13T10:38:44;7.20;99.90
33739;DHT22;20063;51.730;11.110;2023-02-13T11:00:31;7.30;99.90
33739;DHT22;20063;51.730;11.110;2023-02-13T11:02:59;7.30;99.90
33739;DHT22;20063;51.730;11.110;2023-02-13T11:05:36;7.30;99.90
33739;DHT22;20063;51.730;11.110;2023-02-13T11:08:20;7.30;99.90
33739;DHT22;20063;51.730;11.110;2023-02-13T11:10:46;7.40;99.90
33739;DHT22;20063;51.730;11.110;2023-02-13T11:13:24;7.40;99.90
33739;DHT22;20063;51.730;11.110;2023-02-13T11:16:06;7.60;99.90
33739;DHT22;20063;51.730;11.110;2023-02-13T11:18:40;7.60;99.90
33739;DHT22;20063;51.730;11.110;2023-02-13T11:21:19;7.60;99.90
33739;DHT22;20063;51.730;11.110;2023-02-13T11:23:50;7.60;99.90
33739;DHT22;20063;51.730;11.110;2023-02-13T11:26:23;7.70;99.90
33739;DHT22;20063;51.730;11.110;2023-02-13T11:29:03;7.70;99.90
33739;DHT22;20063;51.730;11.110;2023-02-13T11:31:34;7.80;99.90
33739;DHT22;20063;51.730;11.110;2023-02-13T11:34:27;7.70;99.90
33739;DHT22;20063;51.730;11.110;2023-02-13T11:39:39;7.70;99.90
33739;DHT22;20063;51.730;11.110;2023-02-13T11:44:52;7.90;99.90
33739;DHT22;20063;51.730;11.110;2023-02-13T11:47:39;7.90;99.90
33739;DHT22;20063;51.730;11.110;2023-02-13T11:50:21;8.00;99.90
33739;DHT22;20063;51.730;11.110;2023-02-13T11:55:31;8.00;99.90
33739;DHT22;20063;51.730;11.110;2023-02-13T11:58:03;8.00;99.90
33739;DHT22;20063;51.730;11.110;2023-02-13T12:00:34;8.00;99.90
33739;DHT22;20063;51.730;11.110;2023-02-13T12:03:31;8.10;99.90
33739;DHT22;20063;51.730;11.110;2023-02-13T12:06:14;8.20;99.90
33739;DHT22;20063;51.730;11.110;2023-02-13T12:08:44;8.30;99.90
33739;DHT22;20063;51.730;11.110;2023-02-13T12:13:59;8.30;99.90
33739;DHT22;20063;51.730;11.110;2023-02-13T12:18:55;8.20;99.90
33739;DHT22;20063;51.730;11.110;2023-02-13T12:26:56;8.20;99.90
33739;DHT22;20063;51.730;11.110;2023-02-13T12:38:33;8.30;99.90
33739;DHT22;20063;51.730;11.110;2023-02-13T12:41:16;8.30;99.90
33739;DHT22;20063;51.730;11.110;2023-02-13T12:52:59;8.20;99.90
33739;DHT22;20063;51.730;11.110;2023-02-13T13:06:58;8.30;99.90
33739;DHT22;20063;51.730;11.110;2023-02-13T13:09:56;8.30;99.90
33739;DHT22;20063;51.730;11.110;2023-02-13T13:23:32;8.20;99.90
33739;DHT22;20063;51.730;11.110;2023-02-13T13:28:38;8.20;99.90
33739;DHT22;20063;51.730;11.110;2023-02-13T13:31:05;8.20;99.90
33739;DHT22;20063;51.730;11.110;2023-02-13T13:33:32;8.20;99.90
33739;DHT22;20063;51.730;11.110;2023-02-13T13:38:49;8.20;99.90
33739;DHT22;20063;51.730;11.110;2023-02-13T13:41:31;8.10;99.90
33739;DHT22;20063;51.730;11.110;2023-02-13T13:47:01;8.20;99.90
33739;DHT22;20063;51.730;11.110;2023-02-13T13:54:46;8.20;99.90
33739;DHT22;20063;51.730;11.110;2023-02-13T13:57:20;8.20;99.90
33739;DHT22;20063;51.730;11.110;2023-02-13T14:05:19;8.40;99.90
33739;DHT22;20063;51.730;11.110;2023-02-13T14:07:47;8.30;99.90
33739;DHT22;20063;51.730;11.110;2023-02-13T14:31:36;7.80;99.90
33739;DHT22;20063;51.730;11.110;2023-02-13T14:36:47;7.80;99.90
33739;DHT22;20063;51.730;11.110;2023-02-13T14:39:31;7.70;99.90
33739;DHT22;20063;51.730;11.110;2023-02-13T14:42:05;7.70;99.90
33739;DHT22;20063;51.730;11.110;2023-02-13T14:44:50;7.70;99.90
33739;DHT22;20063;51.730;11.110;2023-02-13T14:47:31;7.50;99.90
33739;DHT22;20063;51.730;11.110;2023-02-13T14:50:01;7.50;99.90
33739;DHT22;20063;51.730;11.110;2023-02-13T14:52:33;7.50;99.90
33739;DHT22;20063;51.730;11.110;2023-02-13T14:55:06;7.50;99.90
33739;DHT22;20063;51.730;11.110;2023-02-13T14:57:44;7.50;99.90
33739;DHT22;20063;51.730;11.110;2023-02-13T15:03:36;7.50;99.90
33739;DHT22;20063;51.730;11.110;2023-02-13T15:06:13;7.50;99.90
33739;DHT22;20063;51.730;11.110;2023-02-13T15:08:47;7.50;99.90
33739;DHT22;20063;51.730;11.110;2023-02-13T15:11:40;7.50;99.90
33739;DHT22;20063;51.730;11.110;2023-02-13T15:14:21;7.50;99.90
33739;DHT22;20063;51.730;11.110;2023-02-13T15:17:04;7.40;99.90
33739;DHT22;20063;51.730;11.110;2023-02-13T15:19:33;7.50;99.90
33739;DHT22;20063;51.730;11.110;2023-02-13T15:22:02;7.50;99.90
33739;DHT22;20063;51.730;11.110;2023-02-13T15:24:48;7.50;99.90
33739;DHT22;20063;51.730;11.110;2023-02-13T15:27:40;7.40;99.90
33739;DHT22;20063;51.730;11.110;2023-02-13T15:30:25;7.50;99.90
33739;DHT22;20063;51.730;11.110;2023-02-13T15:33:00;7.50;99.90
33739;DHT22;20063;51.730;11.110;2023-02-13T15:35:31;7.50;99.90
33739;DHT22;20063;51.730;11.110;2023-02-13T15:38:22;7.50;99.90
33739;DHT22;20063;51.730;11.110;2023-02-13T15:40:49;7.50;99.90
33739;DHT22;20063;51.730;11.110;2023-02-13T15:43:32;7.50;99.90
33739;DHT22;20063;51.730;11.110;2023-02-13T15:46:25;7.50;99.90
33739;DHT22;20063;51.730;11.110;2023-02-13T15:48:53;7.50;99.90
33739;DHT22;20063;51.730;11.110;2023-02-13T15:51:27;7.50;99.90
33739;DHT22;20063;51.730;11.110;2023-02-13T15:53:56;7.40;99.90
33739;DHT22;20063;51.730;11.110;2023-02-13T15:56:22;7.40;99.90
33739;DHT22;20063;51.730;11.110;2023-02-13T15:58:49;7.30;99.90
33739;DHT22;20063;51.730;11.110;2023-02-13T16:01:16;7.20;99.90
33739;DHT22;20063;51.730;11.110;2023-02-13T16:03:43;7.30;99.90
33739;DHT22;20063;51.730;11.110;2023-02-13T16:06:15;7.30;99.90
33739;DHT22;20063;51.730;11.110;2023-02-13T16:08:55;7.30;99.90
33739;DHT22;20063;51.730;11.110;2023-02-13T16:11:36;7.30;99.90
33739;DHT22;20063;51.730;11.110;2023-02-13T16:14:20;7.20;99.90
33739;DHT22;20063;51.730;11.110;2023-02-13T16:17:00;7.20;99.90
33739;DHT22;20063;51.730;11.110;2023-02-13T16:19:35;7.20;99.90
33739;DHT22;20063;51.730;11.110;2023-02-13T16:22:31;7.20;99.90
33739;DHT22;20063;51.730;11.110;2023-02-13T16:27:35;7.20;99.90
33739;DHT22;20063;51.730;11.110;2023-02-13T16:30:04;7.10;99.90
33739;DHT22;20063;51.730;11.110;2023-02-13T16:32:34;7.10;99.90
33739;DHT22;20063;51.730;11.110;2023-02-13T16:37:57;7.20;99.90
33739;DHT22;20063;51.730;11.110;2023-02-13T16:43:35;7.10;99.90
33739;DHT22;20063;51.730;11.110;2023-02-13T16:48:36;7.00;99.90
33739;DHT22;20063;51.730;11.110;2023-02-13T16:51:02;7.00;99.90
33739;DHT22;20063;51.730;11.110;2023-02-13T16:53:28;6.90;99.90
33739;DHT22;20063;51.730;11.110;2023-02-13T16:56:04;6.90;99.90
33739;DHT22;20063;51.730;11.110;2023-02-13T16:58:35;6.90;99.90
33739;DHT22;20063;51.730;11.110;2023-02-13T17:01:02;6.90;99.90
33739;DHT22;20063;51.730;11.110;2023-02-13T17:03:31;6.90;99.90
33739;DHT22;20063;51.730;11.110;2023-02-13T17:06:00;6.90;99.90
33739;DHT22;20063;51.730;11.110;2023-02-13T17:08:26;6.80;99.90
33739;DHT22;20063;51.730;11.110;2023-02-13T17:11:06;6.80;99.90
33739;DHT22;20063;51.730;11.110;2023-02-13T17:13:32;6.70;99.90
33739;DHT22;20063;51.730;11.110;2023-02-13T17:15:58;6.70;99.90
33739;DHT22;20063;51.730;11.110;2023-02-13T17:18:27;6.60;99.90
33739;DHT22;20063;51.730;11.110;2023-02-13T17:20:53;6.60;99.90
33739;DHT22;20063;51.730;11.110;2023-02-13T17:23:23;6.60;99.90
33739;DHT22;20063;51.730;11.110;2023-02-13T17:25:50;6.50;99.90
33739;DHT22;20063;51.730;11.110;2023-02-13T17:28:23;6.50;99.90
33739;DHT22;20063;51.730;11.110;2023-02-13T17:30:50;6.50;99.90
33739;DHT22;20063;51.730;11.110;2023-02-13T17:33:28;6.50;99.90
33739;DHT22;20063;51.730;11.110;2023-02-13T17:35:55;6.40;99.90
33739;DHT22;20063;51.730;11.110;2023-02-13T17:38:20;6.40;99.90
33739;DHT22;20063;51.730;11.110;2023-02-13T17:41:33;6.40;99.90
33739;DHT22;20063;51.730;11.110;2023-02-13T17:43:58;6.30;99.90
33739;DHT22;20063;51.730;11.110;2023-02-13T17:46:24;6.40;99.90
33739;DHT22;20063;51.730;11.110;2023-02-13T17:48:49;6.40;99.90
33739;DHT22;20063;51.730;11.110;2023-02-13T17:51:15;6.40;99.90
33739;DHT22;20063;51.730;11.110;2023-02-13T17:53:40;6.40;99.90
33739;DHT22;20063;51.730;11.110;2023-02-13T17:56:06;6.50;99.90
33739;DHT22;20063;51.730;11.110;2023-02-13T17:58:32;6.40;99.90
33739;DHT22;20063;51.730;11.110;2023-02-13T18:00:57;6.40;99.90
33739;DHT22;20063;51.730;11.110;2023-02-13T18:03:23;6.50;99.90
33739;DHT22;20063;51.730;11.110;2023-02-13T18:05:48;6.50;99.90
33739;DHT22;20063;51.730;11.110;2023-02-13T18:08:15;6.50;99.90
33739;DHT22;20063;51.730;11.110;2023-02-13T18:10:40;6.50;99.90
33739;DHT22;20063;51.730;11.110;2023-02-13T18:13:06;6.50;99.90
33739;DHT22;20063;51.730;11.110;2023-02-13T18:15:33;6.50;99.90
33739;DHT22;20063;51.730;11.110;2023-02-13T18:17:59;6.50;99.90
33739;DHT22;20063;51.730;11.110;2023-02-13T18:20:25;6.40;99.90
33739;DHT22;20063;51.730;11.110;2023-02-13T18:22:51;6.40;99.90
33739;DHT22;20063;51.730;11.110;2023-02-13T18:25:18;6.40;99.90
33739;DHT22;20063;51.730;11.110;2023-02-13T18:27:44;6.50;99.90
33739;DHT22;20063;51.730;11.110;2023-02-13T18:30:11;6.40;99.90
33739;DHT22;20063;51.730;11.110;2023-02-13T18:32:38;6.40;99.90
33739;DHT22;20063;51.730;11.110;2023-02-13T18:35:04;6.50;99.90
33739;DHT22;20063;51.730;11.110;2023-02-13T18:37:31;6.50;99.90
33739;DHT22;20063;51.730;11.110;2023-02-13T18:39:58;6.40;99.90
33739;DHT22;20063;51.730;11.110;2023-02-13T18:42:24;6.50;99.90
33739;DHT22;20063;51.730;11.110;2023-02-13T18:44:50;6.50;99.90
33739;DHT22;20063;51.730;11.110;2023-02-13T18:47:16;6.50;99.90
33739;DHT22;20063;51.730;11.110;2023-02-13T18:49:42;6.40;99.90
33739;DHT22;20063;51.730;11.110;2023-02-13T18:52:09;6.40;99.90
33739;DHT22;20063;51.730;11.110;2023-02-13T18:54:35;6.40;99.90
33739;DHT22;20063;51.730;11.110;2023-02-13T18:57:01;6.40;99.90
33739;DHT22;20063;51.730;11.110;2023-02-13T18:59:26;6.40;99.90
33739;DHT22;20063;51.730;11.110;2023-02-13T19:01:52;6.30;99.90